sensor_id;sensor_type;location;lat;lon;timestamp;P1;durP1;ratioP1;P2;durP2;ratioP2
11222;SDS011;5668;52.012;8.724;2023-02-01T00:01:06;9.30;;;2.83;;
11222;SDS011;5668;52.012;8.724;2023-02-01T00:03:33;12.20;;;3.80;;
11222;SDS011;5668;52.012;8.724;2023-02-01T00:06:01;12.47;;;3.97;;
11222;SDS011;5668;52.012;8.724;2023-02-01T00:08:28;13.20;;;2.93;;
11222;SDS011;5668;52.012;8.724;2023-02-01T00:11:01;12.67;;;3.40;;
11222;SDS011;5668;52.012;8.724;2023-02-01T00:13:30;16.10;;;4.70;;
11222;SDS011;5668;52.012;8.724;2023-02-01T00:16:02;15.17;;;4.27;;
11222;SDS011;5668;52.012;8.724;2023-02-01T00:18:30;11.57;;;3.70;;
11222;SDS011;5668;52.012;8.724;2023-02-01T00:20:57;14.40;;;3.97;;
11222;SDS011;5668;52.012;8.724;2023-02-01T00:23:25;11.53;;;3.43;;
11222;SDS011;5668;52.012;8.724;2023-02-01T00:25:52;9.83;;;3.40;;
11222;SDS011;5668;52.012;8.724;2023-02-01T00:28:21;12.30;;;3.07;;
11222;SDS011;5668;52.012;8.724;2023-02-01T00:30:55;12.47;;;3.50;;
11222;SDS011;5668;52.012;8.724;2023-02-01T00:33:23;10.13;;;3.47;;
11222;SDS011;5668;52.012;8.724;2023-02-01T00:35:50;12.10;;;3.60;;
11222;SDS011;5668;52.012;8.724;2023-02-01T00:38:21;12.07;;;3.43;;
11222;SDS011;5668;52.012;8.724;2023-02-01T00:40:52;11.33;;;3.20;;
11222;SDS011;5668;52.012;8.724;2023-02-01T00:43:19;14.93;;;3.37;;
11222;SDS011;5668;52.012;8.724;2023-02-01T00:45:48;8.67;;;3.23;;
11222;SDS011;5668;52.012;8.724;2023-02-01T00:48:15;13.07;;;3.00;;
11222;SDS011;5668;52.012;8.724;2023-02-01T00:50:42;11.03;;;3.57;;
11222;SDS011;5668;52.012;8.724;2023-02-01T00:53:10;12.40;;;3.37;;
11222;SDS011;5668;52.012;8.724;2023-02-01T00:55:37;9.33;;;3.20;;
11222;SDS011;5668;52.012;8.724;2023-02-01T00:58:04;10.37;;;3.50;;
11222;SDS011;5668;52.012;8.724;2023-02-01T01:00:35;11.20;;;2.90;;
11222;SDS011;5668;52.012;8.724;2023-02-01T01:03:03;13.30;;;3.07;;
11222;SDS011;5668;52.012;8.724;2023-02-01T01:05:42;9.63;;;3.33;;
11222;SDS011;5668;52.012;8.724;2023-02-01T01:08:10;13.50;;;4.03;;
11222;SDS011;5668;52.012;8.724;2023-02-01T01:10:37;9.73;;;3.17;;
11222;SDS011;5668;52.012;8.724;2023-02-01T01:13:05;13.37;;;3.13;;
11222;SDS011;5668;52.012;8.724;2023-02-01T01:15:36;13.70;;;3.30;;
11222;SDS011;5668;52.012;8.724;2023-02-01T01:18:04;12.90;;;3.63;;
11222;SDS011;5668;52.012;8.724;2023-02-01T01:20:33;15.53;;;3.00;;
11222;SDS011;5668;52.012;8.724;2023-02-01T01:23:02;13.07;;;3.87;;
11222;SDS011;5668;52.012;8.724;2023-02-01T01:25:30;11.93;;;3.80;;
11222;SDS011;5668;52.012;8.724;2023-02-01T01:27:58;7.00;;;3.13;;
11222;SDS011;5668;52.012;8.724;2023-02-01T01:30:25;12.07;;;3.10;;
11222;SDS011;5668;52.012;8.724;2023-02-01T01:32:53;13.43;;;3.53;;
11222;SDS011;5668;52.012;8.724;2023-02-01T01:35:21;13.63;;;4.63;;
11222;SDS011;5668;52.012;8.724;2023-02-01T01:37:48;14.37;;;4.00;;
11222;SDS011;5668;52.012;8.724;2023-02-01T01:40:16;13.50;;;3.70;;
11222;SDS011;5668;52.012;8.724;2023-02-01T01:42:44;13.20;;;3.63;;
11222;SDS011;5668;52.012;8.724;2023-02-01T01:45:18;13.20;;;3.40;;
11222;SDS011;5668;52.012;8.724;2023-02-01T01:47:50;9.33;;;3.20;;
11222;SDS011;5668;52.012;8.724;2023-02-01T01:50:22;13.77;;;3.70;;
11222;SDS011;5668;52.012;8.724;2023-02-01T01:52:54;10.00;;;3.43;;
11222;SDS011;5668;52.012;8.724;2023-02-01T01:55:24;13.43;;;3.90;;
11222;SDS011;5668;52.012;8.724;2023-02-01T01:57:54;10.87;;;3.67;;
11222;SDS011;5668;52.012;8.724;2023-02-01T02:00:25;13.90;;;3.73;;
11222;SDS011;5668;52.012;8.724;2023-02-01T02:02:54;13.17;;;4.00;;
11222;SDS011;5668;52.012;8.724;2023-02-01T02:05:25;11.87;;;4.23;;
11222;SDS011;5668;52.012;8.724;2023-02-01T02:07:53;12.43;;;3.70;;
11222;SDS011;5668;52.012;8.724;2023-02-01T02:10:25;13.37;;;4.00;;
11222;SDS011;5668;52.012;8.724;2023-02-01T02:13:13;10.13;;;3.57;;
11222;SDS011;5668;52.012;8.724;2023-02-01T02:15:43;13.67;;;3.63;;
11222;SDS011;5668;52.012;8.724;2023-02-01T02:18:17;10.03;;;3.70;;
11222;SDS011;5668;52.012;8.724;2023-02-01T02:21:09;9.47;;;3.50;;
11222;SDS011;5668;52.012;8.724;2023-02-01T02:23:45;12.10;;;3.67;;
11222;SDS011;5668;52.012;8.724;2023-02-01T02:26:38;19.27;;;4.23;;
11222;SDS011;5668;52.012;8.724;2023-02-01T02:29:36;13.33;;;4.60;;
11222;SDS011;5668;52.012;8.724;2023-02-01T02:32:35;12.00;;;4.03;;
11222;SDS011;5668;52.012;8.724;2023-02-01T02:35:16;15.70;;;3.90;;
11222;SDS011;5668;52.012;8.724;2023-02-01T02:37:53;12.70;;;3.93;;
11222;SDS011;5668;52.012;8.724;2023-02-01T02:40:29;14.27;;;3.73;;
11222;SDS011;5668;52.012;8.724;2023-02-01T02:43:02;14.30;;;4.30;;
11222;SDS011;5668;52.012;8.724;2023-02-01T02:45:53;13.87;;;4.23;;
11222;SDS011;5668;52.012;8.724;2023-02-01T02:48:58;16.60;;;4.23;;
11222;SDS011;5668;52.012;8.724;2023-02-01T02:51:32;12.77;;;4.00;;
11222;SDS011;5668;52.012;8.724;2023-02-01T02:54:22;11.73;;;4.07;;
11222;SDS011;5668;52.012;8.724;2023-02-01T02:57:10;15.40;;;3.93;;
11222;SDS011;5668;52.012;8.724;2023-02-01T02:59:58;12.77;;;3.97;;
11222;SDS011;5668;52.012;8.724;2023-02-01T03:02:46;12.77;;;3.30;;
11222;SDS011;5668;52.012;8.724;2023-02-01T03:05:32;13.93;;;3.70;;
11222;SDS011;5668;52.012;8.724;2023-02-01T03:08:03;15.67;;;3.90;;
11222;SDS011;5668;52.012;8.724;2023-02-01T03:10:37;9.83;;;3.17;;
11222;SDS011;5668;52.012;8.724;2023-02-01T03:13:10;12.93;;;3.87;;
11222;SDS011;5668;52.012;8.724;2023-02-01T03:15:42;13.47;;;3.53;;
11222;SDS011;5668;52.012;8.724;2023-02-01T03:18:16;12.13;;;3.47;;
11222;SDS011;5668;52.012;8.724;2023-02-01T03:20:51;15.33;;;3.60;;
11222;SDS011;5668;52.012;8.724;2023-02-01T03:23:23;12.50;;;3.47;;
11222;SDS011;5668;52.012;8.724;2023-02-01T03:25:53;12.53;;;4.17;;
11222;SDS011;5668;52.012;8.724;2023-02-01T03:28:22;13.43;;;3.23;;
11222;SDS011;5668;52.012;8.724;2023-02-01T03:30:51;10.53;;;3.17;;
11222;SDS011;5668;52.012;8.724;2023-02-01T03:33:20;15.43;;;3.10;;
11222;SDS011;5668;52.012;8.724;2023-02-01T03:35:54;16.57;;;3.60;;
11222;SDS011;5668;52.012;8.724;2023-02-01T03:38:29;12.87;;;3.47;;
11222;SDS011;5668;52.012;8.724;2023-02-01T03:41:01;15.43;;;4.33;;
11222;SDS011;5668;52.012;8.724;2023-02-01T03:43:37;8.53;;;3.13;;
11222;SDS011;5668;52.012;8.724;2023-02-01T03:46:13;10.97;;;3.37;;
11222;SDS011;5668;52.012;8.724;2023-02-01T03:48:48;11.03;;;3.50;;
11222;SDS011;5668;52.012;8.724;2023-02-01T03:51:18;9.87;;;3.23;;
11222;SDS011;5668;52.012;8.724;2023-02-01T03:53:48;14.73;;;4.10;;
11222;SDS011;5668;52.012;8.724;2023-02-01T03:56:18;13.00;;;3.37;;
11222;SDS011;5668;52.012;8.724;2023-02-01T03:58:50;12.70;;;4.43;;
11222;SDS011;5668;52.012;8.724;2023-02-01T04:01:25;12.63;;;3.30;;
11222;SDS011;5668;52.012;8.724;2023-02-01T04:03:53;13.70;;;3.40;;
11222;SDS011;5668;52.012;8.724;2023-02-01T04:06:21;12.07;;;3.13;;
11222;SDS011;5668;52.012;8.724;2023-02-01T04:08:50;11.83;;;2.83;;
11222;SDS011;5668;52.012;8.724;2023-02-01T04:11:17;9.50;;;2.77;;
11222;SDS011;5668;52.012;8.724;2023-02-01T04:13:44;13.13;;;3.20;;
11222;SDS011;5668;52.012;8.724;2023-02-01T04:16:12;15.33;;;3.40;;
11222;SDS011;5668;52.012;8.724;2023-02-01T04:18:39;11.13;;;3.20;;
11222;SDS011;5668;52.012;8.724;2023-02-01T04:21:06;9.30;;;2.97;;
11222;SDS011;5668;52.012;8.724;2023-02-01T04:23:33;16.50;;;3.37;;
11222;SDS011;5668;52.012;8.724;2023-02-01T04:26:03;9.93;;;2.97;;
11222;SDS011;5668;52.012;8.724;2023-02-01T04:28:31;7.67;;;2.73;;
11222;SDS011;5668;52.012;8.724;2023-02-01T04:30:58;13.57;;;3.33;;
11222;SDS011;5668;52.012;8.724;2023-02-01T04:33:25;12.83;;;3.63;;
11222;SDS011;5668;52.012;8.724;2023-02-01T04:35:52;10.33;;;2.90;;
11222;SDS011;5668;52.012;8.724;2023-02-01T04:38:20;12.83;;;3.50;;
11222;SDS011;5668;52.012;8.724;2023-02-01T04:40:47;11.20;;;3.13;;
11222;SDS011;5668;52.012;8.724;2023-02-01T04:43:16;7.83;;;2.40;;
11222;SDS011;5668;52.012;8.724;2023-02-01T04:45:47;8.40;;;2.40;;
11222;SDS011;5668;52.012;8.724;2023-02-01T04:48:15;13.23;;;3.60;;
11222;SDS011;5668;52.012;8.724;2023-02-01T04:50:44;10.93;;;3.13;;
11222;SDS011;5668;52.012;8.724;2023-02-01T04:53:12;8.53;;;2.60;;
11222;SDS011;5668;52.012;8.724;2023-02-01T04:55:40;14.30;;;3.30;;
11222;SDS011;5668;52.012;8.724;2023-02-01T04:58:08;14.77;;;3.47;;
11222;SDS011;5668;52.012;8.724;2023-02-01T05:00:36;12.90;;;3.27;;
11222;SDS011;5668;52.012;8.724;2023-02-01T05:03:04;11.97;;;3.17;;
11222;SDS011;5668;52.012;8.724;2023-02-01T05:05:32;10.63;;;3.03;;
11222;SDS011;5668;52.012;8.724;2023-02-01T05:07:59;11.73;;;3.40;;
11222;SDS011;5668;52.012;8.724;2023-02-01T05:10:26;12.07;;;3.20;;
11222;SDS011;5668;52.012;8.724;2023-02-01T05:12:53;9.63;;;3.50;;
11222;SDS011;5668;52.012;8.724;2023-02-01T05:15:39;12.33;;;3.33;;
11222;SDS011;5668;52.012;8.724;2023-02-01T05:18:06;13.60;;;3.50;;
11222;SDS011;5668;52.012;8.724;2023-02-01T05:20:34;16.67;;;3.60;;
11222;SDS011;5668;52.012;8.724;2023-02-01T05:23:01;17.63;;;3.57;;
11222;SDS011;5668;52.012;8.724;2023-02-01T05:25:28;13.13;;;3.90;;
11222;SDS011;5668;52.012;8.724;2023-02-01T05:27:55;13.40;;;3.50;;
11222;SDS011;5668;52.012;8.724;2023-02-01T05:30:23;12.90;;;3.57;;
11222;SDS011;5668;52.012;8.724;2023-02-01T05:32:51;14.23;;;3.33;;
11222;SDS011;5668;52.012;8.724;2023-02-01T05:35:19;20.67;;;3.57;;
11222;SDS011;5668;52.012;8.724;2023-02-01T05:37:46;10.30;;;3.30;;
11222;SDS011;5668;52.012;8.724;2023-02-01T05:40:14;11.10;;;3.33;;
11222;SDS011;5668;52.012;8.724;2023-02-01T05:42:42;12.27;;;3.30;;
11222;SDS011;5668;52.012;8.724;2023-02-01T05:45:09;14.67;;;3.10;;
11222;SDS011;5668;52.012;8.724;2023-02-01T05:47:37;8.43;;;2.70;;
11222;SDS011;5668;52.012;8.724;2023-02-01T05:50:06;15.17;;;4.03;;
11222;SDS011;5668;52.012;8.724;2023-02-01T05:52:35;12.87;;;3.03;;
11222;SDS011;5668;52.012;8.724;2023-02-01T05:55:03;15.07;;;3.57;;
11222;SDS011;5668;52.012;8.724;2023-02-01T05:57:31;17.70;;;3.37;;
11222;SDS011;5668;52.012;8.724;2023-02-01T05:59:58;11.40;;;3.80;;
11222;SDS011;5668;52.012;8.724;2023-02-01T06:02:25;12.03;;;3.90;;
11222;SDS011;5668;52.012;8.724;2023-02-01T06:04:53;14.00;;;3.30;;
11222;SDS011;5668;52.012;8.724;2023-02-01T06:07:21;13.00;;;3.37;;
11222;SDS011;5668;52.012;8.724;2023-02-01T06:09:48;13.83;;;3.33;;
11222;SDS011;5668;52.012;8.724;2023-02-01T06:12:16;15.57;;;3.83;;
11222;SDS011;5668;52.012;8.724;2023-02-01T06:14:43;12.97;;;3.37;;
11222;SDS011;5668;52.012;8.724;2023-02-01T06:17:10;14.77;;;4.03;;
11222;SDS011;5668;52.012;8.724;2023-02-01T06:19:37;11.33;;;3.40;;
11222;SDS011;5668;52.012;8.724;2023-02-01T06:22:05;14.43;;;3.60;;
11222;SDS011;5668;52.012;8.724;2023-02-01T06:24:34;13.83;;;4.13;;
11222;SDS011;5668;52.012;8.724;2023-02-01T06:27:01;10.60;;;3.43;;
11222;SDS011;5668;52.012;8.724;2023-02-01T06:29:28;9.30;;;3.20;;
11222;SDS011;5668;52.012;8.724;2023-02-01T06:31:55;16.80;;;4.30;;
11222;SDS011;5668;52.012;8.724;2023-02-01T06:34:22;18.20;;;3.73;;
11222;SDS011;5668;52.012;8.724;2023-02-01T06:36:50;13.73;;;3.37;;
11222;SDS011;5668;52.012;8.724;2023-02-01T06:39:17;19.23;;;3.70;;
11222;SDS011;5668;52.012;8.724;2023-02-01T06:41:46;12.77;;;4.03;;
11222;SDS011;5668;52.012;8.724;2023-02-01T06:44:14;11.20;;;3.50;;
11222;SDS011;5668;52.012;8.724;2023-02-01T06:46:42;13.33;;;3.27;;
11222;SDS011;5668;52.012;8.724;2023-02-01T06:49:09;10.50;;;3.20;;
11222;SDS011;5668;52.012;8.724;2023-02-01T06:51:36;11.07;;;3.60;;
11222;SDS011;5668;52.012;8.724;2023-02-01T06:54:04;14.03;;;2.93;;
11222;SDS011;5668;52.012;8.724;2023-02-01T06:56:31;12.50;;;3.50;;
11222;SDS011;5668;52.012;8.724;2023-02-01T06:59:01;12.07;;;3.63;;
11222;SDS011;5668;52.012;8.724;2023-02-01T07:01:30;11.70;;;3.70;;
11222;SDS011;5668;52.012;8.724;2023-02-01T07:03:57;13.30;;;3.13;;
11222;SDS011;5668;52.012;8.724;2023-02-01T07:06:24;12.70;;;3.60;;
11222;SDS011;5668;52.012;8.724;2023-02-01T07:08:51;17.17;;;3.97;;
11222;SDS011;5668;52.012;8.724;2023-02-01T07:11:21;10.63;;;3.33;;
11222;SDS011;5668;52.012;8.724;2023-02-01T07:13:49;11.87;;;3.20;;
11222;SDS011;5668;52.012;8.724;2023-02-01T07:16:18;11.70;;;4.50;;
11222;SDS011;5668;52.012;8.724;2023-02-01T07:18:46;12.57;;;3.13;;
11222;SDS011;5668;52.012;8.724;2023-02-01T07:21:13;12.13;;;3.50;;
11222;SDS011;5668;52.012;8.724;2023-02-01T07:23:41;9.10;;;3.40;;
11222;SDS011;5668;52.012;8.724;2023-02-01T07:26:09;14.37;;;3.87;;
11222;SDS011;5668;52.012;8.724;2023-02-01T07:28:38;16.63;;;3.43;;
11222;SDS011;5668;52.012;8.724;2023-02-01T07:31:06;15.20;;;3.50;;
11222;SDS011;5668;52.012;8.724;2023-02-01T07:33:36;14.77;;;3.37;;
11222;SDS011;5668;52.012;8.724;2023-02-01T07:36:04;12.00;;;2.97;;
11222;SDS011;5668;52.012;8.724;2023-02-01T07:38:32;13.30;;;3.53;;
11222;SDS011;5668;52.012;8.724;2023-02-01T07:41:02;11.37;;;3.90;;
11222;SDS011;5668;52.012;8.724;2023-02-01T07:43:30;13.60;;;3.27;;
11222;SDS011;5668;52.012;8.724;2023-02-01T07:45:59;14.87;;;3.70;;
11222;SDS011;5668;52.012;8.724;2023-02-01T07:48:27;16.80;;;3.60;;
11222;SDS011;5668;52.012;8.724;2023-02-01T07:50:59;13.13;;;3.37;;
11222;SDS011;5668;52.012;8.724;2023-02-01T07:53:28;12.17;;;3.37;;
11222;SDS011;5668;52.012;8.724;2023-02-01T07:55:57;11.90;;;3.63;;
11222;SDS011;5668;52.012;8.724;2023-02-01T07:58:25;9.23;;;3.07;;
11222;SDS011;5668;52.012;8.724;2023-02-01T08:00:52;13.57;;;3.70;;
11222;SDS011;5668;52.012;8.724;2023-02-01T08:03:38;14.60;;;3.87;;
11222;SDS011;5668;52.012;8.724;2023-02-01T08:06:07;15.23;;;3.83;;
11222;SDS011;5668;52.012;8.724;2023-02-01T08:08:34;16.10;;;4.13;;
11222;SDS011;5668;52.012;8.724;2023-02-01T08:11:02;12.37;;;3.10;;
11222;SDS011;5668;52.012;8.724;2023-02-01T08:13:32;15.50;;;4.30;;
11222;SDS011;5668;52.012;8.724;2023-02-01T08:16:00;12.03;;;3.70;;
11222;SDS011;5668;52.012;8.724;2023-02-01T08:18:28;12.10;;;3.67;;
11222;SDS011;5668;52.012;8.724;2023-02-01T08:20:56;14.67;;;3.60;;
11222;SDS011;5668;52.012;8.724;2023-02-01T08:23:24;11.70;;;3.87;;
11222;SDS011;5668;52.012;8.724;2023-02-01T08:25:51;12.43;;;4.10;;
11222;SDS011;5668;52.012;8.724;2023-02-01T08:28:19;11.47;;;3.33;;
11222;SDS011;5668;52.012;8.724;2023-02-01T08:30:47;16.13;;;4.03;;
11222;SDS011;5668;52.012;8.724;2023-02-01T08:33:14;12.13;;;4.07;;
11222;SDS011;5668;52.012;8.724;2023-02-01T08:35:41;14.07;;;3.67;;
11222;SDS011;5668;52.012;8.724;2023-02-01T08:38:09;12.07;;;3.37;;
11222;SDS011;5668;52.012;8.724;2023-02-01T08:40:37;11.50;;;3.73;;
11222;SDS011;5668;52.012;8.724;2023-02-01T08:43:06;11.03;;;3.57;;
11222;SDS011;5668;52.012;8.724;2023-02-01T08:45:33;11.23;;;3.40;;
11222;SDS011;5668;52.012;8.724;2023-02-01T08:48:00;12.23;;;3.77;;
11222;SDS011;5668;52.012;8.724;2023-02-01T08:50:28;17.90;;;3.83;;
11222;SDS011;5668;52.012;8.724;2023-02-01T08:52:55;16.00;;;3.93;;
11222;SDS011;5668;52.012;8.724;2023-02-01T08:55:22;10.90;;;3.60;;
11222;SDS011;5668;52.012;8.724;2023-02-01T08:57:51;11.53;;;3.87;;
11222;SDS011;5668;52.012;8.724;2023-02-01T09:00:18;16.47;;;3.80;;
11222;SDS011;5668;52.012;8.724;2023-02-01T09:02:45;11.73;;;3.60;;
11222;SDS011;5668;52.012;8.724;2023-02-01T09:05:13;12.97;;;4.27;;
11222;SDS011;5668;52.012;8.724;2023-02-01T09:07:41;13.10;;;3.90;;
11222;SDS011;5668;52.012;8.724;2023-02-01T09:10:10;12.97;;;3.23;;
11222;SDS011;5668;52.012;8.724;2023-02-01T09:12:38;13.23;;;3.43;;
11222;SDS011;5668;52.012;8.724;2023-02-01T09:15:07;13.40;;;3.80;;
11222;SDS011;5668;52.012;8.724;2023-02-01T09:17:35;10.93;;;3.23;;
11222;SDS011;5668;52.012;8.724;2023-02-01T09:20:03;10.77;;;3.00;;
11222;SDS011;5668;52.012;8.724;2023-02-01T09:22:39;12.77;;;3.47;;
11222;SDS011;5668;52.012;8.724;2023-02-01T09:25:06;16.73;;;4.10;;
11222;SDS011;5668;52.012;8.724;2023-02-01T09:27:34;11.57;;;3.43;;
11222;SDS011;5668;52.012;8.724;2023-02-01T09:30:02;12.97;;;3.60;;
11222;SDS011;5668;52.012;8.724;2023-02-01T09:32:31;11.53;;;3.40;;
11222;SDS011;5668;52.012;8.724;2023-02-01T09:34:59;15.80;;;4.37;;
11222;SDS011;5668;52.012;8.724;2023-02-01T09:37:26;11.50;;;3.43;;
11222;SDS011;5668;52.012;8.724;2023-02-01T09:39:57;14.57;;;4.03;;
11222;SDS011;5668;52.012;8.724;2023-02-01T09:42:29;9.77;;;3.40;;
11222;SDS011;5668;52.012;8.724;2023-02-01T09:45:17;10.67;;;3.23;;
11222;SDS011;5668;52.012;8.724;2023-02-01T09:47:52;13.60;;;3.40;;
11222;SDS011;5668;52.012;8.724;2023-02-01T09:50:27;16.00;;;3.60;;
11222;SDS011;5668;52.012;8.724;2023-02-01T09:53:00;12.30;;;3.57;;
11222;SDS011;5668;52.012;8.724;2023-02-01T09:55:32;11.37;;;3.57;;
11222;SDS011;5668;52.012;8.724;2023-02-01T09:58:06;12.20;;;3.83;;
11222;SDS011;5668;52.012;8.724;2023-02-01T10:00:40;10.33;;;3.40;;
11222;SDS011;5668;52.012;8.724;2023-02-01T10:03:17;9.47;;;2.93;;
11222;SDS011;5668;52.012;8.724;2023-02-01T10:05:55;12.67;;;3.47;;
11222;SDS011;5668;52.012;8.724;2023-02-01T10:08:31;9.60;;;3.40;;
11222;SDS011;5668;52.012;8.724;2023-02-01T10:11:07;12.07;;;2.90;;
11222;SDS011;5668;52.012;8.724;2023-02-01T10:13:51;8.97;;;2.93;;
11222;SDS011;5668;52.012;8.724;2023-02-01T10:16:30;9.60;;;3.80;;
11222;SDS011;5668;52.012;8.724;2023-02-01T10:19:24;8.97;;;2.90;;
11222;SDS011;5668;52.012;8.724;2023-02-01T10:21:58;12.50;;;3.23;;
11222;SDS011;5668;52.012;8.724;2023-02-01T10:24:40;11.93;;;3.57;;
11222;SDS011;5668;52.012;8.724;2023-02-01T10:27:13;12.30;;;3.37;;
11222;SDS011;5668;52.012;8.724;2023-02-01T10:29:46;9.87;;;3.33;;
11222;SDS011;5668;52.012;8.724;2023-02-01T10:32:20;12.63;;;3.33;;
11222;SDS011;5668;52.012;8.724;2023-02-01T10:34:51;10.27;;;3.17;;
11222;SDS011;5668;52.012;8.724;2023-02-01T10:37:32;13.33;;;3.50;;
11222;SDS011;5668;52.012;8.724;2023-02-01T10:40:01;13.97;;;3.70;;
11222;SDS011;5668;52.012;8.724;2023-02-01T10:42:36;13.07;;;3.10;;
11222;SDS011;5668;52.012;8.724;2023-02-01T10:45:06;8.40;;;3.40;;
11222;SDS011;5668;52.012;8.724;2023-02-01T10:47:39;13.93;;;3.43;;
11222;SDS011;5668;52.012;8.724;2023-02-01T10:50:13;14.37;;;3.07;;
11222;SDS011;5668;52.012;8.724;2023-02-01T10:52:50;11.23;;;3.63;;
11222;SDS011;5668;52.012;8.724;2023-02-01T10:55:31;14.03;;;3.50;;
11222;SDS011;5668;52.012;8.724;2023-02-01T10:58:01;12.37;;;3.57;;
11222;SDS011;5668;52.012;8.724;2023-02-01T11:00:42;11.67;;;3.73;;
11222;SDS011;5668;52.012;8.724;2023-02-01T11:03:30;11.57;;;3.67;;
11222;SDS011;5668;52.012;8.724;2023-02-01T11:06:13;10.03;;;3.10;;
11222;SDS011;5668;52.012;8.724;2023-02-01T11:08:53;11.80;;;3.13;;
11222;SDS011;5668;52.012;8.724;2023-02-01T11:11:22;6.97;;;3.23;;
11222;SDS011;5668;52.012;8.724;2023-02-01T11:13:54;10.80;;;3.13;;
11222;SDS011;5668;52.012;8.724;2023-02-01T11:16:28;11.07;;;3.63;;
11222;SDS011;5668;52.012;8.724;2023-02-01T11:18:58;11.27;;;3.87;;
11222;SDS011;5668;52.012;8.724;2023-02-01T11:21:27;13.00;;;3.40;;
11222;SDS011;5668;52.012;8.724;2023-02-01T11:23:54;12.77;;;3.63;;
11222;SDS011;5668;52.012;8.724;2023-02-01T11:26:26;10.17;;;3.37;;
11222;SDS011;5668;52.012;8.724;2023-02-01T11:28:58;8.83;;;3.23;;
11222;SDS011;5668;52.012;8.724;2023-02-01T11:31:48;10.40;;;4.03;;
11222;SDS011;5668;52.012;8.724;2023-02-01T11:34:21;12.40;;;3.90;;
11222;SDS011;5668;52.012;8.724;2023-02-01T11:37:00;10.00;;;3.80;;
11222;SDS011;5668;52.012;8.724;2023-02-01T11:39:30;18.57;;;3.83;;
11222;SDS011;5668;52.012;8.724;2023-02-01T11:42:00;9.80;;;3.13;;
11222;SDS011;5668;52.012;8.724;2023-02-01T11:44:34;10.93;;;3.40;;
11222;SDS011;5668;52.012;8.724;2023-02-01T11:47:19;12.30;;;3.77;;
11222;SDS011;5668;52.012;8.724;2023-02-01T11:49:48;12.50;;;3.47;;
11222;SDS011;5668;52.012;8.724;2023-02-01T11:52:21;8.33;;;3.23;;
11222;SDS011;5668;52.012;8.724;2023-02-01T11:55:05;11.87;;;3.37;;
11222;SDS011;5668;52.012;8.724;2023-02-01T11:57:54;9.33;;;2.90;;
11222;SDS011;5668;52.012;8.724;2023-02-01T12:00:32;14.17;;;3.20;;
11222;SDS011;5668;52.012;8.724;2023-02-01T12:06:11;8.63;;;3.03;;
11222;SDS011;5668;52.012;8.724;2023-02-01T12:09:00;9.17;;;3.43;;
11222;SDS011;5668;52.012;8.724;2023-02-01T12:11:42;10.60;;;3.77;;
11222;SDS011;5668;52.012;8.724;2023-02-01T12:14:25;15.73;;;4.00;;
11222;SDS011;5668;52.012;8.724;2023-02-01T12:17:08;9.50;;;3.23;;
11222;SDS011;5668;52.012;8.724;2023-02-01T12:20:07;11.10;;;3.77;;
11222;SDS011;5668;52.012;8.724;2023-02-01T12:22:52;11.77;;;3.97;;
11222;SDS011;5668;52.012;8.724;2023-02-01T12:25:32;8.07;;;3.17;;
11222;SDS011;5668;52.012;8.724;2023-02-01T12:31:14;10.93;;;3.70;;
11222;SDS011;5668;52.012;8.724;2023-02-01T12:33:59;10.20;;;3.60;;
11222;SDS011;5668;52.012;8.724;2023-02-01T12:36:40;8.37;;;3.47;;
11222;SDS011;5668;52.012;8.724;2023-02-01T12:39:16;7.30;;;3.30;;
11222;SDS011;5668;52.012;8.724;2023-02-01T12:41:52;10.03;;;3.90;;
11222;SDS011;5668;52.012;8.724;2023-02-01T12:44:27;5.53;;;3.30;;
11222;SDS011;5668;52.012;8.724;2023-02-01T12:47:03;13.97;;;3.77;;
11222;SDS011;5668;52.012;8.724;2023-02-01T12:49:38;10.30;;;3.63;;
11222;SDS011;5668;52.012;8.724;2023-02-01T12:52:13;10.17;;;4.10;;
11222;SDS011;5668;52.012;8.724;2023-02-01T12:54:45;8.57;;;4.00;;
11222;SDS011;5668;52.012;8.724;2023-02-01T12:57:19;9.33;;;4.20;;
11222;SDS011;5668;52.012;8.724;2023-02-01T12:59:52;10.63;;;3.83;;
11222;SDS011;5668;52.012;8.724;2023-02-01T13:02:28;9.40;;;3.67;;
11222;SDS011;5668;52.012;8.724;2023-02-01T13:05:11;11.73;;;3.90;;
11222;SDS011;5668;52.012;8.724;2023-02-01T13:07:43;7.50;;;3.67;;
11222;SDS011;5668;52.012;8.724;2023-02-01T13:10:17;8.63;;;3.77;;
11222;SDS011;5668;52.012;8.724;2023-02-01T13:12:53;11.13;;;3.67;;
11222;SDS011;5668;52.012;8.724;2023-02-01T13:15:26;5.90;;;3.20;;
11222;SDS011;5668;52.012;8.724;2023-02-01T13:17:57;8.17;;;3.20;;
11222;SDS011;5668;52.012;8.724;2023-02-01T13:20:29;9.00;;;3.93;;
11222;SDS011;5668;52.012;8.724;2023-02-01T13:22:59;8.73;;;3.97;;
11222;SDS011;5668;52.012;8.724;2023-02-01T13:25:31;13.00;;;4.37;;
11222;SDS011;5668;52.012;8.724;2023-02-01T13:28:05;8.53;;;3.30;;
11222;SDS011;5668;52.012;8.724;2023-02-01T13:30:45;6.67;;;3.30;;
11222;SDS011;5668;52.012;8.724;2023-02-01T13:33:35;8.83;;;3.70;;
11222;SDS011;5668;52.012;8.724;2023-02-01T13:36:35;9.00;;;3.80;;
11222;SDS011;5668;52.012;8.724;2023-02-01T13:39:17;11.53;;;3.77;;
11222;SDS011;5668;52.012;8.724;2023-02-01T13:42:12;9.50;;;3.93;;
11222;SDS011;5668;52.012;8.724;2023-02-01T13:44:44;10.57;;;3.40;;
11222;SDS011;5668;52.012;8.724;2023-02-01T13:47:17;8.60;;;3.40;;
11222;SDS011;5668;52.012;8.724;2023-02-01T13:49:49;6.97;;;3.63;;
11222;SDS011;5668;52.012;8.724;2023-02-01T13:52:24;12.63;;;4.03;;
11222;SDS011;5668;52.012;8.724;2023-02-01T13:55:02;12.03;;;4.00;;
11222;SDS011;5668;52.012;8.724;2023-02-01T13:57:42;8.03;;;3.30;;
11222;SDS011;5668;52.012;8.724;2023-02-01T14:00:24;8.10;;;3.07;;
11222;SDS011;5668;52.012;8.724;2023-02-01T14:03:02;11.37;;;3.90;;
11222;SDS011;5668;52.012;8.724;2023-02-01T14:08:46;8.10;;;3.30;;
11222;SDS011;5668;52.012;8.724;2023-02-01T14:11:46;8.40;;;2.70;;
11222;SDS011;5668;52.012;8.724;2023-02-01T14:23:11;7.83;;;2.93;;
11222;SDS011;5668;52.012;8.724;2023-02-01T14:25:41;9.70;;;2.80;;
11222;SDS011;5668;52.012;8.724;2023-02-01T14:28:10;5.30;;;2.67;;
11222;SDS011;5668;52.012;8.724;2023-02-01T14:30:47;6.30;;;2.43;;
11222;SDS011;5668;52.012;8.724;2023-02-01T14:33:20;6.87;;;2.50;;
11222;SDS011;5668;52.012;8.724;2023-02-01T14:36:00;2.63;;;1.60;;
11222;SDS011;5668;52.012;8.724;2023-02-01T14:38:30;4.13;;;1.37;;
11222;SDS011;5668;52.012;8.724;2023-02-01T14:41:17;3.73;;;1.60;;
11222;SDS011;5668;52.012;8.724;2023-02-01T14:44:13;4.10;;;1.33;;
11222;SDS011;5668;52.012;8.724;2023-02-01T14:52:50;3.97;;;1.13;;
11222;SDS011;5668;52.012;8.724;2023-02-01T14:55:29;3.40;;;1.20;;
11222;SDS011;5668;52.012;8.724;2023-02-01T14:58:02;5.70;;;1.50;;
11222;SDS011;5668;52.012;8.724;2023-02-01T15:00:36;3.00;;;1.43;;
11222;SDS011;5668;52.012;8.724;2023-02-01T15:03:15;5.10;;;1.67;;
11222;SDS011;5668;52.012;8.724;2023-02-01T15:05:55;2.40;;;1.13;;
11222;SDS011;5668;52.012;8.724;2023-02-01T15:08:25;6.53;;;1.73;;
11222;SDS011;5668;52.012;8.724;2023-02-01T15:10:54;3.83;;;1.47;;
11222;SDS011;5668;52.012;8.724;2023-02-01T15:13:26;2.73;;;1.70;;
11222;SDS011;5668;52.012;8.724;2023-02-01T15:16:01;4.20;;;1.67;;
11222;SDS011;5668;52.012;8.724;2023-02-01T15:18:30;6.80;;;1.57;;
11222;SDS011;5668;52.012;8.724;2023-02-01T15:21:00;4.77;;;1.80;;
11222;SDS011;5668;52.012;8.724;2023-02-01T15:23:28;4.00;;;1.80;;
11222;SDS011;5668;52.012;8.724;2023-02-01T15:25:56;6.47;;;2.10;;
11222;SDS011;5668;52.012;8.724;2023-02-01T15:28:24;4.90;;;2.00;;
11222;SDS011;5668;52.012;8.724;2023-02-01T15:30:53;4.63;;;2.10;;
11222;SDS011;5668;52.012;8.724;2023-02-01T15:33:23;5.93;;;2.63;;
11222;SDS011;5668;52.012;8.724;2023-02-01T15:35:52;5.40;;;2.07;;
11222;SDS011;5668;52.012;8.724;2023-02-01T15:41:11;7.87;;;2.20;;
11222;SDS011;5668;52.012;8.724;2023-02-01T15:43:41;9.40;;;2.10;;
11222;SDS011;5668;52.012;8.724;2023-02-01T15:46:15;9.93;;;2.40;;
11222;SDS011;5668;52.012;8.724;2023-02-01T15:48:46;6.37;;;2.17;;